Papillion, Nebraska
Current Conditions -  °F | °C
As of 1:15 PM on Friday 28 Nov 2014 (Local Time) from KMLE Reporting Station
Clear Clear  
Wind Chill: 46°   Ceiling: Unl
Heat Index: 50°   Visibility: 10mi
Dew Point: 31°   Wind: 9mph
Humidity: 49%   Direction: 150°SSE
Pressure: 29.73"   Gusts: NA
Location:  41.16°N, 96.04°W
Report Text: KMLE 281915Z AUTO 15008KT 10SM CLR 10/00 A2973 RMK AO2 T00981005
Loading
Personal Weather Stations






























Interactive Weather Map New forecast layout! Learn more

10-Day Weather Forecast

Advertisements
Track Severe Weather on mobile